sensor_id;sensor_type;location;lat;lon;timestamp;pressure;altitude;pressure_sealevel;temperature;humidity
32747;BME280;19118;50.860;13.662;2023-02-13T00:03:10;99065.31;;;3.25;100.00
32747;BME280;19118;50.860;13.662;2023-02-13T00:08:10;99058.53;;;3.35;100.00
32747;BME280;19118;50.860;13.662;2023-02-13T00:13:11;99060.97;;;3.51;100.00
32747;BME280;19118;50.860;13.662;2023-02-13T00:18:11;99071.44;;;3.51;100.00
32747;BME280;19118;50.860;13.662;2023-02-13T00:23:11;99071.25;;;3.54;100.00
32747;BME280;19118;50.860;13.662;2023-02-13T00:28:12;99066.31;;;3.49;100.00
32747;BME280;19118;50.860;13.662;2023-02-13T00:33:12;99069.13;;;3.46;100.00
32747;BME280;19118;50.860;13.662;2023-02-13T00:38:12;99066.63;;;3.45;100.00
32747;BME280;19118;50.860;13.662;2023-02-13T00:43:13;99069.03;;;3.48;100.00
32747;BME280;19118;50.860;13.662;2023-02-13T00:48:13;99066.03;;;3.54;100.00
32747;BME280;19118;50.860;13.662;2023-02-13T00:53:13;99072.91;;;3.55;100.00
32747;BME280;19118;50.860;13.662;2023-02-13T00:58:14;99079.63;;;3.59;100.00
32747;BME280;19118;50.860;13.662;2023-02-13T01:03:16;99076.06;;;3.60;100.00
32747;BME280;19118;50.860;13.662;2023-02-13T01:08:19;99086.94;;;3.54;100.00
32747;BME280;19118;50.860;13.662;2023-02-13T01:13:21;99088.63;;;3.55;100.00
32747;BME280;19118;50.860;13.662;2023-02-13T01:18:21;99092.78;;;3.58;100.00
32747;BME280;19118;50.860;13.662;2023-02-13T01:23:21;99097.09;;;3.59;100.00
32747;BME280;19118;50.860;13.662;2023-02-13T01:28:22;99080.03;;;3.53;100.00
32747;BME280;19118;50.860;13.662;2023-02-13T01:33:23;99087.78;;;3.55;100.00
32747;BME280;19118;50.860;13.662;2023-02-13T01:38:23;99079.19;;;3.53;100.00
32747;BME280;19118;50.860;13.662;2023-02-13T01:43:24;99087.13;;;3.51;100.00
32747;BME280;19118;50.860;13.662;2023-02-13T01:48:41;99088.81;;;3.52;100.00
32747;BME280;19118;50.860;13.662;2023-02-13T01:54:00;99086.38;;;3.49;100.00
32747;BME280;19118;50.860;13.662;2023-02-13T01:59:06;99078.53;;;3.49;100.00
32747;BME280;19118;50.860;13.662;2023-02-13T02:04:18;99080.22;;;3.50;100.00
32747;BME280;19118;50.860;13.662;2023-02-13T02:09:24;99083.59;;;3.52;100.00
32747;BME280;19118;50.860;13.662;2023-02-13T02:14:27;99080.22;;;3.50;100.00
32747;BME280;19118;50.860;13.662;2023-02-13T02:35:31;99090.50;;;3.53;100.00
32747;BME280;19118;50.860;13.662;2023-02-13T02:46:20;99091.22;;;3.55;100.00
32747;BME280;19118;50.860;13.662;2023-02-13T02:51:40;99094.97;;;3.51;100.00
32747;BME280;19118;50.860;13.662;2023-02-13T02:56:45;99097.59;;;3.51;100.00
32747;BME280;19118;50.860;13.662;2023-02-13T03:01:48;99099.47;;;3.49;100.00
32747;BME280;19118;50.860;13.662;2023-02-13T03:07:10;99101.34;;;3.47;100.00
32747;BME280;19118;50.860;13.662;2023-02-13T03:12:16;99105.63;;;3.48;100.00
32747;BME280;19118;50.860;13.662;2023-02-13T03:17:37;99105.53;;;3.49;100.00
32747;BME280;19118;50.860;13.662;2023-02-13T03:23:04;99105.84;;;3.45;100.00
32747;BME280;19118;50.860;13.662;2023-02-13T03:28:16;99108.47;;;3.45;100.00
32747;BME280;19118;50.860;13.662;2023-02-13T03:39:01;99111.09;;;3.45;100.00
32747;BME280;19118;50.860;13.662;2023-02-13T03:44:33;99112.03;;;3.44;100.00
32747;BME280;19118;50.860;13.662;2023-02-13T03:49:40;99121.13;;;3.51;100.00
32747;BME280;19118;50.860;13.662;2023-02-13T03:55:13;99122.69;;;3.41;100.00
32747;BME280;19118;50.860;13.662;2023-02-13T04:00:42;99117.03;;;3.47;100.00
32747;BME280;19118;50.860;13.662;2023-02-13T04:05:48;99113.28;;;3.51;100.00
32747;BME280;19118;50.860;13.662;2023-02-13T04:10:54;99125.44;;;3.52;100.00
32747;BME280;19118;50.860;13.662;2023-02-13T04:16:03;99125.63;;;3.49;100.00
32747;BME280;19118;50.860;13.662;2023-02-13T04:21:06;99116.22;;;3.46;100.00
32747;BME280;19118;50.860;13.662;2023-02-13T04:26:14;99103.44;;;3.42;100.00
32747;BME280;19118;50.860;13.662;2023-02-13T04:31:15;99103.03;;;3.48;100.00
32747;BME280;19118;50.860;13.662;2023-02-13T04:36:16;99099.88;;;3.43;100.00
32747;BME280;19118;50.860;13.662;2023-02-13T04:41:16;99094.75;;;3.41;100.00
32747;BME280;19118;50.860;13.662;2023-02-13T04:46:17;99097.06;;;3.46;100.00
32747;BME280;19118;50.860;13.662;2023-02-13T04:51:17;99097.38;;;3.41;100.00
32747;BME280;19118;50.860;13.662;2023-02-13T04:56:18;99082.31;;;3.45;100.00
32747;BME280;19118;50.860;13.662;2023-02-13T05:01:18;99084.19;;;3.43;100.00
32747;BME280;19118;50.860;13.662;2023-02-13T05:06:18;99075.81;;;3.38;100.00
32747;BME280;19118;50.860;13.662;2023-02-13T05:11:19;99075.81;;;3.38;100.00
32747;BME280;19118;50.860;13.662;2023-02-13T05:16:19;99073.28;;;3.36;100.00
32747;BME280;19118;50.860;13.662;2023-02-13T05:21:20;99068.91;;;3.37;100.00
32747;BME280;19118;50.860;13.662;2023-02-13T05:26:39;99067.22;;;3.36;100.00
32747;BME280;19118;50.860;13.662;2023-02-13T05:31:40;99056.97;;;3.33;100.00
32747;BME280;19118;50.860;13.662;2023-02-13T05:36:40;99065.75;;;3.32;100.00
32747;BME280;19118;50.860;13.662;2023-02-13T05:41:44;99062.94;;;3.35;100.00
32747;BME280;19118;50.860;13.662;2023-02-13T05:46:45;99067.22;;;3.36;100.00
32747;BME280;19118;50.860;13.662;2023-02-13T05:51:45;99060.44;;;3.46;100.00
32747;BME280;19118;50.860;13.662;2023-02-13T05:56:46;99063.38;;;3.41;100.00
32747;BME280;19118;50.860;13.662;2023-02-13T06:01:46;99059.72;;;3.44;100.00
32747;BME280;19118;50.860;13.662;2023-02-13T06:06:47;99057.84;;;3.46;100.00
32747;BME280;19118;50.860;13.662;2023-02-13T06:11:47;99061.38;;;3.45;100.00
32747;BME280;19118;50.860;13.662;2023-02-13T06:16:48;99054.91;;;3.50;100.00
32747;BME280;19118;50.860;13.662;2023-02-13T06:21:48;99054.50;;;3.44;100.00
32747;BME280;19118;50.860;13.662;2023-02-13T06:26:48;99059.09;;;3.40;100.00
32747;BME280;19118;50.860;13.662;2023-02-13T06:31:49;99054.50;;;3.44;100.00
32747;BME280;19118;50.860;13.662;2023-02-13T06:36:49;99052.81;;;3.43;100.00
32747;BME280;19118;50.860;13.662;2023-02-13T06:41:50;99058.03;;;3.43;100.00
32747;BME280;19118;50.860;13.662;2023-02-13T06:46:50;99056.97;;;3.33;100.00
32747;BME280;19118;50.860;13.662;2023-02-13T06:51:50;99067.06;;;3.52;100.00
32747;BME280;19118;50.860;13.662;2023-02-13T06:56:51;99078.75;;;3.46;100.00
32747;BME280;19118;50.860;13.662;2023-02-13T07:01:51;99067.78;;;3.41;100.00
32747;BME280;19118;50.860;13.662;2023-02-13T07:06:54;99070.50;;;3.52;100.00
32747;BME280;19118;50.860;13.662;2023-02-13T07:11:54;99072.09;;;3.67;100.00
32747;BME280;19118;50.860;13.662;2023-02-13T07:16:56;99063.31;;;3.68;100.00
32747;BME280;19118;50.860;13.662;2023-02-13T07:21:57;99067.09;;;3.64;100.00
32747;BME280;19118;50.860;13.662;2023-02-13T07:26:57;99074.59;;;3.69;100.00
32747;BME280;19118;50.860;13.662;2023-02-13T07:31:58;99067.19;;;3.75;100.00
32747;BME280;19118;50.860;13.662;2023-02-13T07:36:58;99066.88;;;3.80;100.00
32747;BME280;19118;50.860;13.662;2023-02-13T07:41:58;99060.41;;;3.86;100.00
32747;BME280;19118;50.860;13.662;2023-02-13T07:47:00;99065.19;;;3.92;100.00
32747;BME280;19118;50.860;13.662;2023-02-13T07:52:00;99062.91;;;4.00;100.00
32747;BME280;19118;50.860;13.662;2023-02-13T07:57:00;99059.94;;;4.17;100.00
32747;BME280;19118;50.860;13.662;2023-02-13T08:02:02;99054.94;;;4.14;100.00
32747;BME280;19118;50.860;13.662;2023-02-13T08:07:04;99055.53;;;4.18;100.00
32747;BME280;19118;50.860;13.662;2023-02-13T08:12:07;99055.03;;;4.25;100.00
32747;BME280;19118;50.860;13.662;2023-02-13T08:17:08;99046.91;;;4.41;100.00
32747;BME280;19118;50.860;13.662;2023-02-13T08:22:08;99045.50;;;4.24;100.00
32747;BME280;19118;50.860;13.662;2023-02-13T08:27:13;99035.84;;;4.25;100.00
32747;BME280;19118;50.860;13.662;2023-02-13T08:32:13;99036.09;;;4.09;100.00
32747;BME280;19118;50.860;13.662;2023-02-13T08:37:14;99035.03;;;4.24;100.00
32747;BME280;19118;50.860;13.662;2023-02-13T08:42:14;99036.69;;;4.25;100.00
32747;BME280;19118;50.860;13.662;2023-02-13T08:47:14;99034.22;;;4.11;100.00
32747;BME280;19118;50.860;13.662;2023-02-13T08:52:15;99037.13;;;4.19;100.00
32747;BME280;19118;50.860;13.662;2023-02-13T08:57:15;99035.53;;;4.29;100.00
32747;BME280;19118;50.860;13.662;2023-02-13T09:02:15;99033.06;;;4.52;100.00
32747;BME280;19118;50.860;13.662;2023-02-13T09:07:16;99023.88;;;4.46;100.00
32747;BME280;19118;50.860;13.662;2023-02-13T09:12:16;99014.88;;;4.37;100.00
32747;BME280;19118;50.860;13.662;2023-02-13T09:17:16;99017.19;;;4.29;100.00
32747;BME280;19118;50.860;13.662;2023-02-13T09:22:18;99021.56;;;4.42;100.00
32747;BME280;19118;50.860;13.662;2023-02-13T09:27:19;99022.56;;;4.52;100.00
32747;BME280;19118;50.860;13.662;2023-02-13T09:32:19;99026.25;;;4.13;100.00
32747;BME280;19118;50.860;13.662;2023-02-13T09:37:19;99014.50;;;4.18;100.00
32747;BME280;19118;50.860;13.662;2023-02-13T09:42:25;99022.44;;;4.29;100.00
32747;BME280;19118;50.860;13.662;2023-02-13T09:47:33;99020.66;;;4.17;100.00
32747;BME280;19118;50.860;13.662;2023-02-13T09:52:36;99031.47;;;4.13;100.00
32747;BME280;19118;50.860;13.662;2023-02-13T09:57:42;99039.66;;;4.08;100.00
32747;BME280;19118;50.860;13.662;2023-02-13T10:18:50;99022.38;;;4.55;100.00
32747;BME280;19118;50.860;13.662;2023-02-13T10:23:57;99004.09;;;4.66;100.00
32747;BME280;19118;50.860;13.662;2023-02-13T10:29:09;99002.44;;;4.89;100.00
32747;BME280;19118;50.860;13.662;2023-02-13T10:34:34;98989.59;;;4.73;100.00
32747;BME280;19118;50.860;13.662;2023-02-13T10:39:36;98971.19;;;4.62;100.00
32747;BME280;19118;50.860;13.662;2023-02-13T10:44:49;98957.41;;;4.95;100.00
32747;BME280;19118;50.860;13.662;2023-02-13T10:49:57;98956.38;;;5.09;100.00
32747;BME280;19118;50.860;13.662;2023-02-13T10:55:09;98936.28;;;4.85;100.00
32747;BME280;19118;50.860;13.662;2023-02-13T11:00:20;98929.31;;;5.08;100.00
32747;BME280;19118;50.860;13.662;2023-02-13T11:05:45;98914.31;;;5.10;100.00
32747;BME280;19118;50.860;13.662;2023-02-13T11:10:45;98913.28;;;5.35;100.00
32747;BME280;19118;50.860;13.662;2023-02-13T11:16:04;98892.63;;;5.31;100.00
32747;BME280;19118;50.860;13.662;2023-02-13T11:21:22;98881.22;;;5.54;100.00
32747;BME280;19118;50.860;13.662;2023-02-13T11:26:35;98870.22;;;5.15;100.00
32747;BME280;19118;50.860;13.662;2023-02-13T11:31:36;98871.91;;;5.39;100.00
32747;BME280;19118;50.860;13.662;2023-02-13T11:36:37;98868.22;;;5.52;100.00
32747;BME280;19118;50.860;13.662;2023-02-13T11:41:42;98856.41;;;5.36;100.00
32747;BME280;19118;50.860;13.662;2023-02-13T11:46:46;98853.78;;;5.69;100.00
32747;BME280;19118;50.860;13.662;2023-02-13T11:51:50;98843.84;;;5.95;100.00
32747;BME280;19118;50.860;13.662;2023-02-13T11:56:53;98826.38;;;6.17;100.00
32747;BME280;19118;50.860;13.662;2023-02-13T12:07:30;98816.47;;;6.41;100.00
32747;BME280;19118;50.860;13.662;2023-02-13T12:12:36;98815.78;;;6.39;100.00
32747;BME280;19118;50.860;13.662;2023-02-13T12:17:37;98815.78;;;6.39;100.00
32747;BME280;19118;50.860;13.662;2023-02-13T12:22:45;98805.19;;;6.29;100.00
32747;BME280;19118;50.860;13.662;2023-02-13T12:28:01;98802.31;;;6.53;100.00
32747;BME280;19118;50.860;13.662;2023-02-13T12:49:54;98791.84;;;7.35;100.00
32747;BME280;19118;50.860;13.662;2023-02-13T12:55:14;98788.72;;;7.51;100.00
32747;BME280;19118;50.860;13.662;2023-02-13T13:22:12;98798.69;;;7.57;100.00
32747;BME280;19118;50.860;13.662;2023-02-13T13:27:19;98803.81;;;7.49;100.00
32747;BME280;19118;50.860;13.662;2023-02-13T13:32:21;98787.09;;;7.59;100.00
32747;BME280;19118;50.860;13.662;2023-02-13T13:37:36;98793.16;;;7.50;100.00
32747;BME280;19118;50.860;13.662;2023-02-13T13:42:43;98800.47;;;7.47;100.00
32747;BME280;19118;50.860;13.662;2023-02-13T13:48:16;98789.09;;;7.37;100.00
32747;BME280;19118;50.860;13.662;2023-02-13T13:53:19;98783.75;;;7.17;100.00
32747;BME280;19118;50.860;13.662;2023-02-13T14:03:56;98793.75;;;6.72;100.00
32747;BME280;19118;50.860;13.662;2023-02-13T14:09:00;98784.50;;;6.57;100.00
32747;BME280;19118;50.860;13.662;2023-02-13T14:24:33;98791.84;;;6.21;100.00
32747;BME280;19118;50.860;13.662;2023-02-13T14:29:35;98790.88;;;6.01;100.00
32747;BME280;19118;50.860;13.662;2023-02-13T14:34:37;98796.13;;;6.01;100.00
32747;BME280;19118;50.860;13.662;2023-02-13T14:39:38;98792.69;;;5.78;100.00
32747;BME280;19118;50.860;13.662;2023-02-13T14:44:48;98777.97;;;5.87;100.00
32747;BME280;19118;50.860;13.662;2023-02-13T14:49:50;98783.03;;;5.68;100.00
32747;BME280;19118;50.860;13.662;2023-02-13T14:54:54;98778.78;;;5.55;100.00
32747;BME280;19118;50.860;13.662;2023-02-13T15:00:03;98773.56;;;5.11;100.00
32747;BME280;19118;50.860;13.662;2023-02-13T15:05:12;98777.03;;;5.00;100.00
32747;BME280;19118;50.860;13.662;2023-02-13T15:15:25;98769.47;;;4.84;100.00
32747;BME280;19118;50.860;13.662;2023-02-13T15:20:27;98754.44;;;4.64;100.00
32747;BME280;19118;50.860;13.662;2023-02-13T15:25:37;98763.34;;;4.50;100.00
32747;BME280;19118;50.860;13.662;2023-02-13T15:30:38;98764.19;;;4.51;100.00
32747;BME280;19118;50.860;13.662;2023-02-13T15:35:38;98760.09;;;4.35;100.00
32747;BME280;19118;50.860;13.662;2023-02-13T15:40:40;98768.88;;;4.23;100.00
32747;BME280;19118;50.860;13.662;2023-02-13T15:45:42;98763.72;;;4.11;100.00
32747;BME280;19118;50.860;13.662;2023-02-13T15:50:42;98773.09;;;4.02;100.00
32747;BME280;19118;50.860;13.662;2023-02-13T15:55:55;98772.53;;;3.86;100.00
32747;BME280;19118;50.860;13.662;2023-02-13T16:00:58;98779.53;;;3.61;100.00
32747;BME280;19118;50.860;13.662;2023-02-13T16:06:01;98785.50;;;3.63;100.00
32747;BME280;19118;50.860;13.662;2023-02-13T16:11:16;98814.47;;;3.60;100.00
32747;BME280;19118;50.860;13.662;2023-02-13T16:16:17;98813.47;;;3.37;100.00
32747;BME280;19118;50.860;13.662;2023-02-13T16:21:22;98821.78;;;3.31;100.00
32747;BME280;19118;50.860;13.662;2023-02-13T16:26:23;98836.53;;;3.07;100.00
32747;BME280;19118;50.860;13.662;2023-02-13T16:31:23;98847.50;;;2.99;100.00
32747;BME280;19118;50.860;13.662;2023-02-13T16:36:28;98839.88;;;3.09;100.00
32747;BME280;19118;50.860;13.662;2023-02-13T16:41:30;98857.53;;;3.05;100.00
32747;BME280;19118;50.860;13.662;2023-02-13T16:46:40;98851.16;;;3.09;100.00
32747;BME280;19118;50.860;13.662;2023-02-13T16:51:54;98863.41;;;3.09;100.00
32747;BME280;19118;50.860;13.662;2023-02-13T17:02:32;98877.19;;;3.11;100.00
32747;BME280;19118;50.860;13.662;2023-02-13T17:07:36;98852.63;;;3.13;100.00
32747;BME280;19118;50.860;13.662;2023-02-13T17:12:37;98853.06;;;3.07;100.00
32747;BME280;19118;50.860;13.662;2023-02-13T17:17:37;98859.72;;;3.11;100.00
32747;BME280;19118;50.860;13.662;2023-02-13T17:22:41;98846.25;;;3.17;100.00
32747;BME280;19118;50.860;13.662;2023-02-13T17:27:42;98839.66;;;2.99;100.00
32747;BME280;19118;50.860;13.662;2023-02-13T17:32:44;98840.28;;;3.03;100.00
32747;BME280;19118;50.860;13.662;2023-02-13T17:37:45;98850.63;;;3.04;100.00
32747;BME280;19118;50.860;13.662;2023-02-13T17:42:47;98843.44;;;2.95;100.00
32747;BME280;19118;50.860;13.662;2023-02-13T17:47:49;98853.56;;;2.87;100.00
32747;BME280;19118;50.860;13.662;2023-02-13T17:52:50;98848.63;;;2.82;100.00
32747;BME280;19118;50.860;13.662;2023-02-13T17:57:52;98865.13;;;2.70;100.00
32747;BME280;19118;50.860;13.662;2023-02-13T18:02:52;98890.09;;;2.61;100.00
32747;BME280;19118;50.860;13.662;2023-02-13T18:07:53;98900.44;;;2.63;100.00
32747;BME280;19118;50.860;13.662;2023-02-13T18:12:54;98892.72;;;2.61;100.00
32747;BME280;19118;50.860;13.662;2023-02-13T18:17:56;98897.72;;;2.65;100.00
32747;BME280;19118;50.860;13.662;2023-02-13T18:22:56;98892.84;;;2.73;100.00
32747;BME280;19118;50.860;13.662;2023-02-13T18:27:56;98911.97;;;2.73;100.00
32747;BME280;19118;50.860;13.662;2023-02-13T18:32:57;98908.19;;;2.77;100.00
32747;BME280;19118;50.860;13.662;2023-02-13T18:37:58;98907.13;;;2.67;100.00
32747;BME280;19118;50.860;13.662;2023-02-13T18:42:58;98912.03;;;2.72;100.00
32747;BME280;19118;50.860;13.662;2023-02-13T18:47:59;98909.03;;;2.78;100.00
32747;BME280;19118;50.860;13.662;2023-02-13T18:53:00;98906.63;;;2.75;100.00
32747;BME280;19118;50.860;13.662;2023-02-13T18:58:00;98918.75;;;2.76;100.00
32747;BME280;19118;50.860;13.662;2023-02-13T19:03:01;98910.50;;;2.82;100.00
32747;BME280;19118;50.860;13.662;2023-02-13T19:08:02;98896.69;;;2.80;100.00
32747;BME280;19118;50.860;13.662;2023-02-13T19:13:04;98888.13;;;2.78;100.00
32747;BME280;19118;50.860;13.662;2023-02-13T19:18:05;98883.22;;;2.73;100.00
32747;BME280;19118;50.860;13.662;2023-02-13T19:23:05;98896.50;;;2.83;100.00
32747;BME280;19118;50.860;13.662;2023-02-13T19:28:06;98885.84;;;2.73;100.00
32747;BME280;19118;50.860;13.662;2023-02-13T19:33:06;98878.72;;;2.62;100.00
32747;BME280;19118;50.860;13.662;2023-02-13T19:38:06;98882.44;;;2.58;100.00
32747;BME280;19118;50.860;13.662;2023-02-13T19:43:07;98876.38;;;2.58;100.00
32747;BME280;19118;50.860;13.662;2023-02-13T19:48:07;98877.97;;;2.60;100.00
32747;BME280;19118;50.860;13.662;2023-02-13T19:53:08;98911.97;;;2.46;100.00
32747;BME280;19118;50.860;13.662;2023-02-13T19:58:08;98921.38;;;2.49;100.00
32747;BME280;19118;50.860;13.662;2023-02-13T20:03:08;98931.13;;;2.59;100.00
32747;BME280;19118;50.860;13.662;2023-02-13T20:08:09;98939.91;;;2.58;100.00
32747;BME280;19118;50.860;13.662;2023-02-13T20:13:10;98945.81;;;2.48;100.00
32747;BME280;19118;50.860;13.662;2023-02-13T20:18:10;98942.41;;;2.60;100.00
32747;BME280;19118;50.860;13.662;2023-02-13T20:23:10;98951.84;;;2.62;100.00
32747;BME280;19118;50.860;13.662;2023-02-13T20:28:11;98957.69;;;2.66;100.00
32747;BME280;19118;50.860;13.662;2023-02-13T20:33:11;98963.38;;;2.73;100.00
32747;BME280;19118;50.860;13.662;2023-02-13T20:38:11;98963.41;;;2.85;100.00
32747;BME280;19118;50.860;13.662;2023-02-13T20:43:12;98961.16;;;2.79;100.00
32747;BME280;19118;50.860;13.662;2023-02-13T20:48:12;98961.88;;;2.69;100.00
32747;BME280;19118;50.860;13.662;2023-02-13T20:53:13;98968.97;;;2.67;100.00
32747;BME280;19118;50.860;13.662;2023-02-13T20:58:13;98956.84;;;2.66;100.00
32747;BME280;19118;50.860;13.662;2023-02-13T21:03:13;98957.25;;;2.59;100.00
32747;BME280;19118;50.860;13.662;2023-02-13T21:08:14;98962.47;;;2.59;100.00
32747;BME280;19118;50.860;13.662;2023-02-13T21:13:14;98962.59;;;2.71;100.00
32747;BME280;19118;50.860;13.662;2023-02-13T21:18:14;98968.19;;;2.79;100.00
32747;BME280;19118;50.860;13.662;2023-02-13T21:23:15;98958.31;;;2.70;100.00
32747;BME280;19118;50.860;13.662;2023-02-13T21:28:16;98963.06;;;2.77;100.00
32747;BME280;19118;50.860;13.662;2023-02-13T21:33:16;98961.66;;;2.72;100.00
32747;BME280;19118;50.860;13.662;2023-02-13T21:38:16;98960.63;;;2.61;100.00
32747;BME280;19118;50.860;13.662;2023-02-13T21:43:18;98958.31;;;2.70;100.00
32747;BME280;19118;50.860;13.662;2023-02-13T21:48:18;98966.38;;;2.67;100.00
32747;BME280;19118;50.860;13.662;2023-02-13T21:53:19;98969.22;;;2.76;100.00
32747;BME280;19118;50.860;13.662;2023-02-13T21:58:19;98966.16;;;2.70;100.00
32747;BME280;19118;50.860;13.662;2023-02-13T22:03:19;98963.03;;;2.65;100.00
32747;BME280;19118;50.860;13.662;2023-02-13T22:08:20;98950.75;;;2.52;100.00
32747;BME280;19118;50.860;13.662;2023-02-13T22:13:20;98968.34;;;2.63;100.00
32747;BME280;19118;50.860;13.662;2023-02-13T22:18:21;98962.97;;;2.52;100.00
32747;BME280;19118;50.860;13.662;2023-02-13T22:23:21;98977.00;;;2.63;100.00
32747;BME280;19118;50.860;13.662;2023-02-13T22:28:21;98974.41;;;2.63;100.00
32747;BME280;19118;50.860;13.662;2023-02-13T22:33:22;98974.78;;;2.57;100.00
32747;BME280;19118;50.860;13.662;2023-02-13T22:38:22;98986.91;;;2.58;100.00
32747;BME280;19118;50.860;13.662;2023-02-13T22:43:22;98995.09;;;2.67;100.00
32747;BME280;19118;50.860;13.662;2023-02-13T22:48:23;98994.06;;;2.69;100.00
32747;BME280;19118;50.860;13.662;2023-02-13T22:53:23;99003.91;;;2.78;100.00
32747;BME280;19118;50.860;13.662;2023-02-13T22:58:23;99007.16;;;2.82;100.00
32747;BME280;19118;50.860;13.662;2023-02-13T23:03:24;99003.06;;;2.78;100.00
32747;BME280;19118;50.860;13.662;2023-02-13T23:08:25;99020.16;;;2.69;100.00
32747;BME280;19118;50.860;13.662;2023-02-13T23:13:25;99012.78;;;2.76;100.00
32747;BME280;19118;50.860;13.662;2023-02-13T23:18:25;99013.41;;;2.79;100.00
32747;BME280;19118;50.860;13.662;2023-02-13T23:23:25;99013.91;;;2.72;100.00
32747;BME280;19118;50.860;13.662;2023-02-13T23:28:26;99023.97;;;2.78;100.00
32747;BME280;19118;50.860;13.662;2023-02-13T23:33:27;99023.59;;;2.84;100.00
32747;BME280;19118;50.860;13.662;2023-02-13T23:38:27;99017.81;;;2.79;100.00
32747;BME280;19118;50.860;13.662;2023-02-13T23:43:28;99019.13;;;2.72;100.00
32747;BME280;19118;50.860;13.662;2023-02-13T23:48:28;99006.63;;;2.77;100.00
32747;BME280;19118;50.860;13.662;2023-02-13T23:53:28;99003.38;;;2.73;100.00
32747;BME280;19118;50.860;13.662;2023-02-13T23:58:29;98994.88;;;2.70;100.00
